sensor_id;sensor_type;location;lat;lon;timestamp;pressure;altitude;pressure_sealevel;temperature;humidity
59531;BME280;45349;48.692;8.186;2023-05-16T00:00:56;98435.97;;;12.15;100.00
59531;BME280;45349;48.692;8.186;2023-05-16T00:03:23;98436.97;;;12.14;100.00
59531;BME280;45349;48.692;8.186;2023-05-16T00:05:50;98434.69;;;12.11;100.00
59531;BME280;45349;48.692;8.186;2023-05-16T00:08:17;98437.63;;;12.08;100.00
59531;BME280;45349;48.692;8.186;2023-05-16T00:10:45;98438.13;;;12.12;100.00
59531;BME280;45349;48.692;8.186;2023-05-16T00:13:11;98436.97;;;12.06;100.00
59531;BME280;45349;48.692;8.186;2023-05-16T00:15:38;98434.69;;;12.03;100.00
59531;BME280;45349;48.692;8.186;2023-05-16T00:18:05;98433.22;;;12.00;100.00
59531;BME280;45349;48.692;8.186;2023-05-16T00:20:31;98429.28;;;11.96;100.00
59531;BME280;45349;48.692;8.186;2023-05-16T00:22:58;98422.41;;;11.95;100.00
59531;BME280;45349;48.692;8.186;2023-05-16T00:25:26;98427.78;;;11.93;100.00
59531;BME280;45349;48.692;8.186;2023-05-16T00:27:54;98424.53;;;11.91;100.00
59531;BME280;45349;48.692;8.186;2023-05-16T00:30:21;98418.63;;;11.89;100.00
59531;BME280;45349;48.692;8.186;2023-05-16T00:32:50;98421.91;;;11.91;100.00
59531;BME280;45349;48.692;8.186;2023-05-16T00:35:17;98424.53;;;11.91;100.00
59531;BME280;45349;48.692;8.186;2023-05-16T00:37:43;98417.19;;;11.87;100.00
59531;BME280;45349;48.692;8.186;2023-05-16T00:40:10;98422.25;;;11.88;100.00
59531;BME280;45349;48.692;8.186;2023-05-16T00:42:37;98419.63;;;11.88;100.00
59531;BME280;45349;48.692;8.186;2023-05-16T00:45:07;98423.41;;;11.86;100.00
59531;BME280;45349;48.692;8.186;2023-05-16T00:47:36;98423.53;;;11.84;100.00
59531;BME280;45349;48.692;8.186;2023-05-16T00:50:03;98417.34;;;11.85;100.00
59531;BME280;45349;48.692;8.186;2023-05-16T00:52:30;98417.66;;;11.82;100.00
59531;BME280;45349;48.692;8.186;2023-05-16T00:54:58;98424.69;;;11.81;100.00
59531;BME280;45349;48.692;8.186;2023-05-16T00:57:24;98417.84;;;11.80;100.00
59531;BME280;45349;48.692;8.186;2023-05-16T00:59:51;98427.78;;;11.77;100.00
59531;BME280;45349;48.692;8.186;2023-05-16T01:02:19;98422.88;;;11.74;100.00
59531;BME280;45349;48.692;8.186;2023-05-16T01:04:46;98422.88;;;11.74;100.00
59531;BME280;45349;48.692;8.186;2023-05-16T01:07:14;98426.47;;;11.73;100.00
59531;BME280;45349;48.692;8.186;2023-05-16T01:09:40;98428.78;;;11.76;100.00
59531;BME280;45349;48.692;8.186;2023-05-16T01:12:13;98426.81;;;11.78;100.00
59531;BME280;45349;48.692;8.186;2023-05-16T01:14:47;98425.84;;;11.79;100.00
59531;BME280;45349;48.692;8.186;2023-05-16T01:17:22;98433.03;;;11.77;100.00
59531;BME280;45349;48.692;8.186;2023-05-16T01:20:00;98430.91;;;11.80;100.00
59531;BME280;45349;48.692;8.186;2023-05-16T01:22:37;98431.25;;;11.86;100.00
59531;BME280;45349;48.692;8.186;2023-05-16T01:25:19;98431.56;;;11.82;100.00
59531;BME280;45349;48.692;8.186;2023-05-16T01:27:48;98433.34;;;11.82;100.00
59531;BME280;45349;48.692;8.186;2023-05-16T01:30:17;98431.72;;;11.81;100.00
59531;BME280;45349;48.692;8.186;2023-05-16T01:32:45;98433.34;;;11.82;100.00
59531;BME280;45349;48.692;8.186;2023-05-16T01:35:14;98433.69;;;11.79;100.00
59531;BME280;45349;48.692;8.186;2023-05-16T01:37:44;98433.03;;;11.77;100.00
59531;BME280;45349;48.692;8.186;2023-05-16T01:40:17;98429.75;;;11.75;100.00
59531;BME280;45349;48.692;8.186;2023-05-16T01:42:49;98431.25;;;11.77;100.00
59531;BME280;45349;48.692;8.186;2023-05-16T01:45:19;98425.03;;;11.78;100.00
59531;BME280;45349;48.692;8.186;2023-05-16T01:47:57;98426.66;;;11.79;100.00
59531;BME280;45349;48.692;8.186;2023-05-16T01:50:27;98426.50;;;11.81;100.00
59531;BME280;45349;48.692;8.186;2023-05-16T01:52:59;98436.28;;;11.87;100.00
59531;BME280;45349;48.692;8.186;2023-05-16T01:55:35;98428.78;;;11.84;100.00
59531;BME280;45349;48.692;8.186;2023-05-16T01:58:07;98433.03;;;11.85;100.00
59531;BME280;45349;48.692;8.186;2023-05-16T02:00:35;98437.94;;;11.80;100.00
59531;BME280;45349;48.692;8.186;2023-05-16T02:03:02;98438.09;;;11.78;100.00
59531;BME280;45349;48.692;8.186;2023-05-16T02:05:29;98433.69;;;11.79;100.00
59531;BME280;45349;48.692;8.186;2023-05-16T02:07:56;98442.34;;;11.79;100.00
59531;BME280;45349;48.692;8.186;2023-05-16T02:10:23;98442.50;;;11.78;100.00
59531;BME280;45349;48.692;8.186;2023-05-16T02:12:50;98438.75;;;11.80;100.00
59531;BME280;45349;48.692;8.186;2023-05-16T02:15:18;98437.28;;;11.78;100.00
59531;BME280;45349;48.692;8.186;2023-05-16T02:17:45;98433.84;;;11.77;100.00
59531;BME280;45349;48.692;8.186;2023-05-16T02:20:13;98433.34;;;11.74;100.00
59531;BME280;45349;48.692;8.186;2023-05-16T02:22:39;98438.75;;;11.72;100.00
59531;BME280;45349;48.692;8.186;2023-05-16T02:25:07;98433.53;;;11.72;100.00
59531;BME280;45349;48.692;8.186;2023-05-16T02:27:34;98435.81;;;11.67;100.00
59531;BME280;45349;48.692;8.186;2023-05-16T02:30:01;98440.22;;;11.66;100.00
59531;BME280;45349;48.692;8.186;2023-05-16T02:32:29;98438.59;;;11.65;100.00
59531;BME280;45349;48.692;8.186;2023-05-16T02:34:56;98438.28;;;11.60;100.00
59531;BME280;45349;48.692;8.186;2023-05-16T02:37:23;98442.53;;;11.61;100.00
59531;BME280;45349;48.692;8.186;2023-05-16T02:39:49;98435.97;;;11.57;100.00
59531;BME280;45349;48.692;8.186;2023-05-16T02:42:16;98435.78;;;11.50;100.00
59531;BME280;45349;48.692;8.186;2023-05-16T02:44:43;98444.94;;;11.46;100.00
59531;BME280;45349;48.692;8.186;2023-05-16T02:47:09;98441.66;;;11.44;100.00
59531;BME280;45349;48.692;8.186;2023-05-16T02:49:37;98438.25;;;11.44;100.00
59531;BME280;45349;48.692;8.186;2023-05-16T02:52:05;98431.84;;;11.46;100.00
59531;BME280;45349;48.692;8.186;2023-05-16T02:54:32;98439.22;;;11.43;100.00
59531;BME280;45349;48.692;8.186;2023-05-16T02:56:58;98433.47;;;11.39;100.00
59531;BME280;45349;48.692;8.186;2023-05-16T02:59:26;98437.25;;;11.36;100.00
59531;BME280;45349;48.692;8.186;2023-05-16T03:01:52;98441.78;;;11.26;100.00
59531;BME280;45349;48.692;8.186;2023-05-16T03:04:22;98444.22;;;11.28;100.00
59531;BME280;45349;48.692;8.186;2023-05-16T03:06:50;98445.06;;;11.28;100.00
59531;BME280;45349;48.692;8.186;2023-05-16T03:09:17;98431.16;;;11.28;100.00
59531;BME280;45349;48.692;8.186;2023-05-16T03:11:44;98434.63;;;11.28;100.00
59531;BME280;45349;48.692;8.186;2023-05-16T03:14:11;98442.47;;;11.28;100.00
59531;BME280;45349;48.692;8.186;2023-05-16T03:16:38;98440.97;;;11.34;100.00
59531;BME280;45349;48.692;8.186;2023-05-16T03:19:05;98444.91;;;11.30;100.00
59531;BME280;45349;48.692;8.186;2023-05-16T03:21:32;98440.50;;;11.30;100.00
59531;BME280;45349;48.692;8.186;2023-05-16T03:24:01;98449.16;;;11.31;100.00
59531;BME280;45349;48.692;8.186;2023-05-16T03:26:28;98443.25;;;11.29;100.00
59531;BME280;45349;48.692;8.186;2023-05-16T03:28:54;98446.22;;;11.34;100.00
59531;BME280;45349;48.692;8.186;2023-05-16T03:31:21;98446.22;;;11.34;100.00
59531;BME280;45349;48.692;8.186;2023-05-16T03:33:48;98445.88;;;11.37;100.00
59531;BME280;45349;48.692;8.186;2023-05-16T03:36:14;98449.16;;;11.31;100.00
59531;BME280;45349;48.692;8.186;2023-05-16T03:38:41;98444.56;;;11.33;100.00
59531;BME280;45349;48.692;8.186;2023-05-16T03:41:09;98453.06;;;11.35;100.00
59531;BME280;45349;48.692;8.186;2023-05-16T03:43:36;98451.94;;;11.37;100.00
59531;BME280;45349;48.692;8.186;2023-05-16T03:46:02;98454.56;;;11.37;100.00
59531;BME280;45349;48.692;8.186;2023-05-16T03:48:29;98453.41;;;11.40;100.00
59531;BME280;45349;48.692;8.186;2023-05-16T03:50:55;98450.78;;;11.40;100.00
59531;BME280;45349;48.692;8.186;2023-05-16T03:53:22;98462.41;;;11.37;100.00
59531;BME280;45349;48.692;8.186;2023-05-16T03:55:48;98462.41;;;11.37;100.00
59531;BME280;45349;48.692;8.186;2023-05-16T03:58:16;98463.06;;;11.40;100.00
59531;BME280;45349;48.692;8.186;2023-05-16T04:00:43;98470.38;;;11.36;100.00
59531;BME280;45349;48.692;8.186;2023-05-16T04:03:11;98466.97;;;11.35;100.00
59531;BME280;45349;48.692;8.186;2023-05-16T04:05:37;98474.81;;;11.35;100.00
59531;BME280;45349;48.692;8.186;2023-05-16T04:08:04;98470.72;;;11.33;100.00
59531;BME280;45349;48.692;8.186;2023-05-16T04:10:30;98472.03;;;11.37;100.00
59531;BME280;45349;48.692;8.186;2023-05-16T04:12:57;98481.16;;;11.33;100.00
59531;BME280;45349;48.692;8.186;2023-05-16T04:15:25;98477.56;;;11.34;100.00
59531;BME280;45349;48.692;8.186;2023-05-16T04:17:52;98480.84;;;11.36;100.00
59531;BME280;45349;48.692;8.186;2023-05-16T04:20:18;98492.13;;;11.36;100.00
59531;BME280;45349;48.692;8.186;2023-05-16T04:22:45;98486.91;;;11.36;100.00
59531;BME280;45349;48.692;8.186;2023-05-16T04:25:12;98490.63;;;11.34;100.00
59531;BME280;45349;48.692;8.186;2023-05-16T04:27:38;98483.44;;;11.36;100.00
59531;BME280;45349;48.692;8.186;2023-05-16T04:30:06;98486.25;;;11.34;100.00
59531;BME280;45349;48.692;8.186;2023-05-16T04:32:34;98483.09;;;11.31;100.00
59531;BME280;45349;48.692;8.186;2023-05-16T04:35:01;98479.84;;;11.29;100.00
59531;BME280;45349;48.692;8.186;2023-05-16T04:37:28;98489.00;;;11.33;100.00
59531;BME280;45349;48.692;8.186;2023-05-16T04:39:54;98482.94;;;11.24;100.00
59531;BME280;45349;48.692;8.186;2023-05-16T04:42:21;98485.19;;;11.11;100.00
59531;BME280;45349;48.692;8.186;2023-05-16T04:44:48;98487.13;;;11.08;100.00
59531;BME280;45349;48.692;8.186;2023-05-16T04:47:14;98492.34;;;11.08;100.00
59531;BME280;45349;48.692;8.186;2023-05-16T04:49:42;98487.31;;;11.07;100.00
59531;BME280;45349;48.692;8.186;2023-05-16T04:52:09;98489.09;;;11.06;100.00
59531;BME280;45349;48.692;8.186;2023-05-16T04:54:37;98486.47;;;11.06;100.00
59531;BME280;45349;48.692;8.186;2023-05-16T04:57:03;98490.72;;;11.07;100.00
59531;BME280;45349;48.692;8.186;2023-05-16T04:59:30;98489.91;;;11.07;100.00
59531;BME280;45349;48.692;8.186;2023-05-16T05:01:57;98497.75;;;11.07;100.00
59531;BME280;45349;48.692;8.186;2023-05-16T05:04:25;98490.41;;;11.11;100.00
59531;BME280;45349;48.692;8.186;2023-05-16T05:06:53;98502.31;;;11.13;100.00
59531;BME280;45349;48.692;8.186;2023-05-16T05:09:25;98500.38;;;11.15;100.00
59531;BME280;45349;48.692;8.186;2023-05-16T05:11:52;98500.72;;;11.20;100.00
59531;BME280;45349;48.692;8.186;2023-05-16T05:14:44;98509.56;;;11.28;100.00
59531;BME280;45349;48.692;8.186;2023-05-16T05:17:10;98515.94;;;11.25;100.00
59531;BME280;45349;48.692;8.186;2023-05-16T05:19:37;98511.50;;;11.26;100.00
59531;BME280;45349;48.692;8.186;2023-05-16T05:22:05;98518.53;;;11.25;100.00
59531;BME280;45349;48.692;8.186;2023-05-16T05:24:31;98519.22;;;11.27;100.00
59531;BME280;45349;48.692;8.186;2023-05-16T05:26:58;98515.09;;;11.25;100.00
59531;BME280;45349;48.692;8.186;2023-05-16T05:29:26;98516.56;;;11.19;100.00
59531;BME280;45349;48.692;8.186;2023-05-16T05:31:52;98524.06;;;11.14;100.00
59531;BME280;45349;48.692;8.186;2023-05-16T05:34:22;98531.41;;;11.18;100.00
59531;BME280;45349;48.692;8.186;2023-05-16T05:36:49;98529.59;;;11.11;100.00
59531;BME280;45349;48.692;8.186;2023-05-16T05:39:17;98532.16;;;11.02;100.00
59531;BME280;45349;48.692;8.186;2023-05-16T05:41:44;98521.41;;;11.05;100.00
59531;BME280;45349;48.692;8.186;2023-05-16T05:44:10;98530.38;;;11.03;100.00
59531;BME280;45349;48.692;8.186;2023-05-16T05:46:37;98529.81;;;10.91;100.00
59531;BME280;45349;48.692;8.186;2023-05-16T05:49:04;98530.34;;;10.95;100.00
59531;BME280;45349;48.692;8.186;2023-05-16T05:51:30;98532.78;;;10.96;100.00
59531;BME280;45349;48.692;8.186;2023-05-16T05:53:57;98530.97;;;10.88;100.00
59531;BME280;45349;48.692;8.186;2023-05-16T05:56:25;98523.47;;;10.93;100.00
59531;BME280;45349;48.692;8.186;2023-05-16T05:58:52;98527.63;;;10.78;100.00
59531;BME280;45349;48.692;8.186;2023-05-16T06:01:19;98529.78;;;10.83;100.00
59531;BME280;45349;48.692;8.186;2023-05-16T06:03:46;98531.28;;;10.85;100.00
59531;BME280;45349;48.692;8.186;2023-05-16T06:06:13;98535.16;;;10.81;100.00
59531;BME280;45349;48.692;8.186;2023-05-16T06:08:40;98528.47;;;10.87;100.00
59531;BME280;45349;48.692;8.186;2023-05-16T06:11:07;98539.75;;;10.87;100.00
59531;BME280;45349;48.692;8.186;2023-05-16T06:13:34;98545.19;;;10.94;100.00
59531;BME280;45349;48.692;8.186;2023-05-16T06:16:01;98539.28;;;10.92;100.00
59531;BME280;45349;48.692;8.186;2023-05-16T06:18:28;98538.31;;;10.93;100.00
59531;BME280;45349;48.692;8.186;2023-05-16T06:20:55;98544.19;;;10.95;100.00
59531;BME280;45349;48.692;8.186;2023-05-16T06:23:21;98543.84;;;10.90;100.00
59531;BME280;45349;48.692;8.186;2023-05-16T06:25:49;98556.09;;;10.89;100.00
59531;BME280;45349;48.692;8.186;2023-05-16T06:28:16;98545.13;;;10.86;100.00
59531;BME280;45349;48.692;8.186;2023-05-16T06:30:44;98544.38;;;10.93;100.00
59531;BME280;45349;48.692;8.186;2023-05-16T06:33:12;98549.25;;;10.88;100.00
59531;BME280;45349;48.692;8.186;2023-05-16T06:35:39;98555.31;;;10.97;100.00
59531;BME280;45349;48.692;8.186;2023-05-16T06:38:05;98560.03;;;10.93;100.00
59531;BME280;45349;48.692;8.186;2023-05-16T06:40:32;98558.28;;;11.02;100.00
59531;BME280;45349;48.692;8.186;2023-05-16T06:42:59;98557.66;;;11.08;100.00
59531;BME280;45349;48.692;8.186;2023-05-16T06:45:25;98565.50;;;11.08;100.00
59531;BME280;45349;48.692;8.186;2023-05-16T06:47:53;98561.59;;;11.13;100.00
59531;BME280;45349;48.692;8.186;2023-05-16T06:50:21;98563.53;;;11.11;100.00
59531;BME280;45349;48.692;8.186;2023-05-16T06:52:47;98565.19;;;11.12;100.00
59531;BME280;45349;48.692;8.186;2023-05-16T06:55:14;98565.53;;;11.17;100.00
59531;BME280;45349;48.692;8.186;2023-05-16T06:57:41;98566.81;;;11.13;100.00
59531;BME280;45349;48.692;8.186;2023-05-16T07:00:08;98570.53;;;11.02;100.00
59531;BME280;45349;48.692;8.186;2023-05-16T07:02:35;98575.81;;;11.10;100.00
59531;BME280;45349;48.692;8.186;2023-05-16T07:05:03;98579.38;;;11.09;100.00
59531;BME280;45349;48.692;8.186;2023-05-16T07:07:30;98575.28;;;11.06;100.00
59531;BME280;45349;48.692;8.186;2023-05-16T07:09:56;98574.75;;;10.95;100.00
59531;BME280;45349;48.692;8.186;2023-05-16T07:12:23;98577.47;;;10.93;100.00
59531;BME280;45349;48.692;8.186;2023-05-16T07:14:50;98567.25;;;11.00;100.00
59531;BME280;45349;48.692;8.186;2023-05-16T07:17:17;98584.81;;;10.89;100.00
59531;BME280;45349;48.692;8.186;2023-05-16T07:19:44;98580.22;;;10.83;100.00
59531;BME280;45349;48.692;8.186;2023-05-16T07:22:12;98582.66;;;10.85;100.00
59531;BME280;45349;48.692;8.186;2023-05-16T07:24:38;98593.94;;;10.85;100.00
59531;BME280;45349;48.692;8.186;2023-05-16T07:27:05;98592.00;;;10.87;100.00
59531;BME280;45349;48.692;8.186;2023-05-16T07:29:32;98592.50;;;10.91;100.00
59531;BME280;45349;48.692;8.186;2023-05-16T07:31:59;98595.03;;;10.83;100.00
59531;BME280;45349;48.692;8.186;2023-05-16T07:34:26;98598.03;;;10.88;100.00
59531;BME280;45349;48.692;8.186;2023-05-16T07:36:52;98604.06;;;10.88;100.00
59531;BME280;45349;48.692;8.186;2023-05-16T07:39:45;98600.69;;;10.96;100.00
59531;BME280;45349;48.692;8.186;2023-05-16T07:42:13;98601.59;;;10.87;100.00
59531;BME280;45349;48.692;8.186;2023-05-16T07:44:40;98599.00;;;10.87;100.00
59531;BME280;45349;48.692;8.186;2023-05-16T07:47:06;98603.78;;;10.91;100.00
59531;BME280;45349;48.692;8.186;2023-05-16T07:49:33;98610.81;;;10.99;100.00
59531;BME280;45349;48.692;8.186;2023-05-16T07:51:59;98613.72;;;10.70;100.00
59531;BME280;45349;48.692;8.186;2023-05-16T07:54:26;98609.84;;;10.74;100.00
59531;BME280;45349;48.692;8.186;2023-05-16T07:56:54;98609.25;;;10.62;100.00
59531;BME280;45349;48.692;8.186;2023-05-16T07:59:28;98607.38;;;10.72;100.00
59531;BME280;45349;48.692;8.186;2023-05-16T08:01:55;98610.88;;;10.81;100.00
59531;BME280;45349;48.692;8.186;2023-05-16T08:04:25;98613.19;;;10.84;100.00
59531;BME280;45349;48.692;8.186;2023-05-16T08:06:52;98613.56;;;10.89;100.00
59531;BME280;45349;48.692;8.186;2023-05-16T08:09:44;98617.50;;;10.75;100.00
59531;BME280;45349;48.692;8.186;2023-05-16T08:12:12;98622.28;;;10.80;100.00
59531;BME280;45349;48.692;8.186;2023-05-16T08:14:38;98626.38;;;10.83;100.00
59531;BME280;45349;48.692;8.186;2023-05-16T08:17:05;98623.41;;;10.77;100.00
59531;BME280;45349;48.692;8.186;2023-05-16T08:19:31;98628.38;;;10.89;100.00
59531;BME280;45349;48.692;8.186;2023-05-16T08:21:58;98626.31;;;10.92;100.00
59531;BME280;45349;48.692;8.186;2023-05-16T08:24:26;98628.44;;;10.97;100.00
59531;BME280;45349;48.692;8.186;2023-05-16T08:26:52;98632.13;;;11.13;100.00
59531;BME280;45349;48.692;8.186;2023-05-16T08:29:45;98629.34;;;11.14;100.00
59531;BME280;45349;48.692;8.186;2023-05-16T08:32:12;98631.69;;;11.26;100.00
59531;BME280;45349;48.692;8.186;2023-05-16T08:34:38;98633.59;;;11.42;100.00
59531;BME280;45349;48.692;8.186;2023-05-16T08:37:05;98635.09;;;11.52;100.00
59531;BME280;45349;48.692;8.186;2023-05-16T08:39:32;98634.13;;;11.54;100.00
59531;BME280;45349;48.692;8.186;2023-05-16T08:41:59;98635.19;;;11.69;100.00
59531;BME280;45349;48.692;8.186;2023-05-16T08:44:27;98633.75;;;11.83;100.00
59531;BME280;45349;48.692;8.186;2023-05-16T08:46:56;98635.00;;;11.62;100.00
59531;BME280;45349;48.692;8.186;2023-05-16T08:49:26;98637.31;;;11.74;100.00
59531;BME280;45349;48.692;8.186;2023-05-16T08:51:56;98650.28;;;11.84;100.00
59531;BME280;45349;48.692;8.186;2023-05-16T08:54:26;98648.25;;;11.69;100.00
59531;BME280;45349;48.692;8.186;2023-05-16T08:56:53;98640.22;;;11.62;100.00
59531;BME280;45349;48.692;8.186;2023-05-16T08:59:26;98646.56;;;11.60;100.00
59531;BME280;45349;48.692;8.186;2023-05-16T09:01:55;98642.16;;;11.52;100.00
59531;BME280;45349;48.692;8.186;2023-05-16T09:04:26;98640.50;;;11.25;100.00
59531;BME280;45349;48.692;8.186;2023-05-16T09:06:53;98649.84;;;11.27;100.00
59531;BME280;45349;48.692;8.186;2023-05-16T09:09:26;98652.22;;;11.12;100.00
59531;BME280;45349;48.692;8.186;2023-05-16T09:11:52;98639.81;;;11.14;100.00
59531;BME280;45349;48.692;8.186;2023-05-16T09:14:45;98640.94;;;11.12;100.00
59531;BME280;45349;48.692;8.186;2023-05-16T09:17:13;98654.19;;;10.92;99.52
59531;BME280;45349;48.692;8.186;2023-05-16T09:19:40;98645.38;;;10.93;100.00
59531;BME280;45349;48.692;8.186;2023-05-16T09:22:08;98654.66;;;10.87;99.51
59531;BME280;45349;48.692;8.186;2023-05-16T09:24:37;98652.91;;;10.96;99.16
59531;BME280;45349;48.692;8.186;2023-05-16T09:27:07;98651.66;;;11.00;98.89
59531;BME280;45349;48.692;8.186;2023-05-16T09:29:34;98653.44;;;11.00;100.00
59531;BME280;45349;48.692;8.186;2023-05-16T09:32:04;98650.25;;;10.88;100.00
59531;BME280;45349;48.692;8.186;2023-05-16T09:34:38;98650.00;;;10.99;99.81
59531;BME280;45349;48.692;8.186;2023-05-16T09:37:05;98663.78;;;11.10;100.00
59531;BME280;45349;48.692;8.186;2023-05-16T09:39:31;98654.31;;;11.08;97.92
59531;BME280;45349;48.692;8.186;2023-05-16T09:41:58;98663.31;;;11.14;99.54
59531;BME280;45349;48.692;8.186;2023-05-16T09:44:26;98663.00;;;11.17;99.25
59531;BME280;45349;48.692;8.186;2023-05-16T09:46:53;98662.19;;;11.17;98.32
59531;BME280;45349;48.692;8.186;2023-05-16T09:49:26;98669.25;;;11.25;98.85
59531;BME280;45349;48.692;8.186;2023-05-16T09:51:54;98661.78;;;11.30;97.75
59531;BME280;45349;48.692;8.186;2023-05-16T09:54:29;98659.06;;;11.13;100.00
59531;BME280;45349;48.692;8.186;2023-05-16T09:56:57;98659.41;;;11.18;99.69
59531;BME280;45349;48.692;8.186;2023-05-16T09:59:27;98665.59;;;11.35;96.99
59531;BME280;45349;48.692;8.186;2023-05-16T10:01:56;98665.16;;;11.22;99.35
59531;BME280;45349;48.692;8.186;2023-05-16T10:04:26;98659.47;;;11.27;98.05
59531;BME280;45349;48.692;8.186;2023-05-16T10:06:54;98660.91;;;11.21;98.91
59531;BME280;45349;48.692;8.186;2023-05-16T10:09:26;98662.63;;;11.30;98.80
59531;BME280;45349;48.692;8.186;2023-05-16T10:11:54;98664.91;;;11.33;98.58
59531;BME280;45349;48.692;8.186;2023-05-16T10:14:26;98665.31;;;11.20;100.00
59531;BME280;45349;48.692;8.186;2023-05-16T10:16:53;98663.19;;;11.16;100.00
59531;BME280;45349;48.692;8.186;2023-05-16T10:19:26;98662.97;;;11.09;100.00
59531;BME280;45349;48.692;8.186;2023-05-16T10:21:59;98664.44;;;11.12;100.00
59531;BME280;45349;48.692;8.186;2023-05-16T10:24:36;98668.22;;;11.17;100.00
59531;BME280;45349;48.692;8.186;2023-05-16T10:27:04;98673.13;;;11.12;99.51
59531;BME280;45349;48.692;8.186;2023-05-16T10:29:31;98669.13;;;11.00;99.96
59531;BME280;45349;48.692;8.186;2023-05-16T10:32:02;98674.34;;;11.00;100.00
59531;BME280;45349;48.692;8.186;2023-05-16T10:34:29;98679.88;;;10.78;100.00
59531;BME280;45349;48.692;8.186;2023-05-16T10:36:57;98680.00;;;10.95;100.00
59531;BME280;45349;48.692;8.186;2023-05-16T10:39:26;98685.16;;;10.87;100.00
59531;BME280;45349;48.692;8.186;2023-05-16T10:41:56;98686.31;;;10.84;100.00
59531;BME280;45349;48.692;8.186;2023-05-16T10:44:30;98686.31;;;10.84;100.00
59531;BME280;45349;48.692;8.186;2023-05-16T10:46:57;98688.59;;;10.69;100.00
59531;BME280;45349;48.692;8.186;2023-05-16T10:49:26;98690.25;;;10.88;100.00
59531;BME280;45349;48.692;8.186;2023-05-16T10:52:05;98691.34;;;11.04;100.00
59531;BME280;45349;48.692;8.186;2023-05-16T10:54:36;98681.09;;;11.11;100.00
59531;BME280;45349;48.692;8.186;2023-05-16T10:57:05;98675.28;;;11.51;95.47
59531;BME280;45349;48.692;8.186;2023-05-16T10:59:42;98683.88;;;11.70;94.41
59531;BME280;45349;48.692;8.186;2023-05-16T11:02:23;98684.38;;;11.74;94.29
59531;BME280;45349;48.692;8.186;2023-05-16T11:04:51;98687.50;;;12.12;92.99
59531;BME280;45349;48.692;8.186;2023-05-16T11:07:20;98689.38;;;11.93;91.46
59531;BME280;45349;48.692;8.186;2023-05-16T11:10:07;98688.53;;;11.23;95.83
59531;BME280;45349;48.692;8.186;2023-05-16T11:12:42;98700.28;;;11.46;95.24
59531;BME280;45349;48.692;8.186;2023-05-16T11:15:19;98693.97;;;11.30;95.29
59531;BME280;45349;48.692;8.186;2023-05-16T11:17:46;98694.81;;;11.39;94.94
59531;BME280;45349;48.692;8.186;2023-05-16T11:20:28;98698.88;;;11.33;93.63
59531;BME280;45349;48.692;8.186;2023-05-16T11:23:22;98708.94;;;11.20;96.15
59531;BME280;45349;48.692;8.186;2023-05-16T11:25:52;98700.47;;;11.00;96.42
59531;BME280;45349;48.692;8.186;2023-05-16T11:28:19;98706.59;;;10.90;95.90
59531;BME280;45349;48.692;8.186;2023-05-16T11:30:48;98706.50;;;11.00;96.72
59531;BME280;45349;48.692;8.186;2023-05-16T11:33:16;98711.09;;;11.06;97.33
59531;BME280;45349;48.692;8.186;2023-05-16T11:35:58;98716.88;;;11.10;95.95
59531;BME280;45349;48.692;8.186;2023-05-16T11:38:29;98715.75;;;10.95;95.71
59531;BME280;45349;48.692;8.186;2023-05-16T11:41:01;98714.63;;;10.97;95.09
59531;BME280;45349;48.692;8.186;2023-05-16T11:43:28;98712.31;;;11.12;94.92
59531;BME280;45349;48.692;8.186;2023-05-16T11:45:55;98712.09;;;11.05;94.12
59531;BME280;45349;48.692;8.186;2023-05-16T11:48:23;98713.97;;;10.95;96.06
59531;BME280;45349;48.692;8.186;2023-05-16T11:50:50;98723.22;;;10.89;95.64
59531;BME280;45349;48.692;8.186;2023-05-16T11:53:19;98729.31;;;10.44;96.81
59531;BME280;45349;48.692;8.186;2023-05-16T11:55:48;98723.97;;;10.63;95.59
59531;BME280;45349;48.692;8.186;2023-05-16T11:58:17;98724.44;;;10.59;96.42
59531;BME280;45349;48.692;8.186;2023-05-16T12:00:47;98738.50;;;10.66;96.73
59531;BME280;45349;48.692;8.186;2023-05-16T12:03:14;98737.47;;;10.77;94.99
59531;BME280;45349;48.692;8.186;2023-05-16T12:05:49;98732.19;;;10.69;93.89
59531;BME280;45349;48.692;8.186;2023-05-16T12:08:16;98738.44;;;10.76;94.00
59531;BME280;45349;48.692;8.186;2023-05-16T12:10:43;98738.28;;;10.77;94.41
59531;BME280;45349;48.692;8.186;2023-05-16T12:13:11;98734.88;;;10.59;96.09
59531;BME280;45349;48.692;8.186;2023-05-16T12:15:37;98749.47;;;10.52;95.20
59531;BME280;45349;48.692;8.186;2023-05-16T12:18:04;98746.19;;;10.50;95.00
59531;BME280;45349;48.692;8.186;2023-05-16T12:20:31;98755.22;;;10.55;94.82
59531;BME280;45349;48.692;8.186;2023-05-16T12:22:58;98751.13;;;10.53;94.94
59531;BME280;45349;48.692;8.186;2023-05-16T12:25:26;98756.56;;;10.31;95.50
59531;BME280;45349;48.692;8.186;2023-05-16T12:27:53;98753.06;;;10.51;97.48
59531;BME280;45349;48.692;8.186;2023-05-16T12:30:22;98753.50;;;10.64;96.22
59531;BME280;45349;48.692;8.186;2023-05-16T12:32:54;98762.63;;;10.78;94.45
59531;BME280;45349;48.692;8.186;2023-05-16T12:35:21;98758.41;;;10.67;95.51
59531;BME280;45349;48.692;8.186;2023-05-16T12:37:48;98761.88;;;10.86;92.63
59531;BME280;45349;48.692;8.186;2023-05-16T12:40:15;98763.97;;;10.82;93.40
59531;BME280;45349;48.692;8.186;2023-05-16T12:42:42;98769.84;;;11.02;93.48
59531;BME280;45349;48.692;8.186;2023-05-16T12:45:13;98767.47;;;11.09;90.38
59531;BME280;45349;48.692;8.186;2023-05-16T12:47:43;98768.13;;;10.93;90.69
59531;BME280;45349;48.692;8.186;2023-05-16T12:50:11;98772.84;;;11.07;90.99
59531;BME280;45349;48.692;8.186;2023-05-16T12:52:46;98772.44;;;11.20;90.15
59531;BME280;45349;48.692;8.186;2023-05-16T12:55:14;98768.84;;;11.40;88.58
59531;BME280;45349;48.692;8.186;2023-05-16T12:57:41;98773.41;;;11.37;87.62
59531;BME280;45349;48.692;8.186;2023-05-16T13:00:10;98769.50;;;11.42;88.35